Alyeska Resort
Hourly Weather - Base Weather Site
ALY_BASE_HR 8/2/2014
CLICK TO VIEW GRAPH!!

        DATE  TIME   Air  BATT   H2o   H2o   Rel
                    Temp  Volt  Inch Since  Hum%
                      F   AVG   1HR  0600   AVG

    8/1/2014 24:00    58 13.55  0.00  0.00    79
    8/1/2014 23:00    59 13.52  0.00  0.00    79
    8/1/2014 22:00    61 13.47  0.00  0.00    74
    8/1/2014 21:00    63 13.43  0.00  0.00    68
    8/1/2014 20:00    65 13.38  0.00  0.00    61
    8/1/2014 19:00    68 13.33  0.00  0.00    55
    8/1/2014 18:00    70 13.30  0.00  0.00    49
    8/1/2014 17:00    71 13.30  0.00  0.00    49
    8/1/2014 16:00    71 13.32  0.00  0.00    51
    8/1/2014 15:00    68 13.36  0.00  0.00    56
    8/1/2014 14:00    67 13.37  0.00  0.00    59
    8/1/2014 13:00    65 13.43  0.00  0.00    65
    8/1/2014 12:00    63 13.47  0.00  0.00    72
    8/1/2014 11:00    61 13.51  0.00  0.00    77
    8/1/2014 10:00    60 13.54  0.00  0.00    83
    8/1/2014 09:00    59 13.57  0.00  0.00    86
    8/1/2014 08:00    57 13.59  0.00  0.00    90
    8/1/2014 07:00    56 13.60  0.00  0.00    90
    8/1/2014 06:00    56 13.60  0.00  0.00    91
    8/1/2014 05:00    56 13.59  0.00  0.00    90
    8/1/2014 04:00    57 13.57  0.00  0.00    88
    8/1/2014 03:00    58 13.56  0.00  0.00    87
    8/1/2014 02:00    58 13.56  0.00  0.00    88
    8/1/2014 01:00    58 13.55  0.00  0.00    88


CLICK TO VIEW GRAPH!!